Time;durP1;ratioP1;P1;durP2;ratioP2;P2;SDS_P1;SDS_P2;PMS_P1;PMS_P2;Temp;Humidity;BMP_temperature;BMP_pressure;BME280_temperature;BME280_humidity;BME280_pressure;Samples;Min_cycle;Max_cycle;Signal;HPM_P1;HPM_P2
2021/12/03 00:00:46;;;;;;;6.28;3.70;;;3.50;99.90;;;;;;4170542;28;20060;-63
2021/12/03 00:02:47;;;;;;;7.00;3.70;;;3.50;99.90;;;;;;4175957;28;20041;-63
2021/12/03 00:04:47;;;;;;;7.75;3.45;;;3.50;99.90;;;;;;4170925;28;20577;-63
2021/12/03 00:06:48;;;;;;;8.75;3.95;;;3.40;99.90;;;;;;4170541;28;20041;-63
2021/12/03 00:08:49;;;;;;;9.32;4.80;;;3.40;99.90;;;;;;4171004;28;20492;-63
2021/12/03 00:10:54;;;;;;;9.32;3.50;;;3.40;99.90;;;;;;4170604;28;20037;-63
2021/12/03 00:12:57;;;;;;;6.55;3.97;;;3.40;99.90;;;;;;4170346;28;20035;-63
2021/12/03 00:14:58;;;;;;;8.65;3.90;;;3.40;99.90;;;;;;4174497;28;20487;-63
2021/12/03 00:16:59;;;;;;;5.43;3.63;;;3.30;99.90;;;;;;4169826;28;20037;-63
2021/12/03 00:18:59;;;;;;;6.22;3.78;;;3.30;99.90;;;;;;4173444;28;20057;-63
2021/12/03 00:21:04;;;;;;;5.20;3.65;;;3.30;99.90;;;;;;4171230;28;20034;-63
2021/12/03 00:23:06;;;;;;;11.90;4.57;;;3.20;99.90;;;;;;4175597;28;20507;-63
2021/12/03 00:25:07;;;;;;;7.78;4.85;;;3.10;99.90;;;;;;4172989;28;20469;-64
2021/12/03 00:27:08;;;;;;;6.75;4.18;;;3.10;99.90;;;;;;4172307;28;20048;-63
2021/12/03 00:29:09;;;;;;;7.05;4.50;;;3.10;99.90;;;;;;4178232;28;20573;-63
2021/12/03 00:31:11;;;;;;;8.65;4.47;;;3.10;99.90;;;;;;4169360;28;20503;-63
2021/12/03 00:33:12;;;;;;;7.13;4.27;;;3.10;99.90;;;;;;4172071;28;20542;-63
2021/12/03 00:35:14;;;;;;;7.88;4.53;;;3.10;99.90;;;;;;4169821;28;20033;-63
2021/12/03 00:37:15;;;;;;;8.13;4.10;;;3.10;99.90;;;;;;4175625;28;20057;-63
2021/12/03 00:39:15;;;;;;;6.72;4.50;;;3.10;99.90;;;;;;4177806;28;20040;-63
2021/12/03 00:41:20;;;;;;;6.95;4.15;;;3.10;99.90;;;;;;4167828;28;20461;-63
2021/12/03 00:43:20;;;;;;;8.27;4.78;;;3.10;99.90;;;;;;4178027;28;20041;-63
2021/12/03 00:45:21;;;;;;;7.63;5.15;;;3.20;99.90;;;;;;4169907;28;20037;-63
2021/12/03 00:47:23;;;;;;;7.15;4.40;;;3.10;99.90;;;;;;4170672;28;20029;-63
2021/12/03 00:49:25;;;;;;;10.70;5.22;;;3.10;99.90;;;;;;4170050;28;20036;-63
2021/12/03 00:51:26;;;;;;;7.63;4.57;;;3.10;99.90;;;;;;4171415;28;20044;-63
2021/12/03 00:53:27;;;;;;;10.35;5.40;;;3.10;99.90;;;;;;4170458;28;20036;-63
2021/12/03 00:55:30;;;;;;;8.35;5.40;;;3.00;99.90;;;;;;4173993;28;20029;-63
2021/12/03 00:57:30;;;;;;;;;;;3.10;99.90;;;;;;4162978;28;20036;-63
2021/12/03 00:59:31;;;;;;;8.25;5.43;;;3.10;99.90;;;;;;4172328;28;19905;-63
2021/12/03 01:01:32;;;;;;;11.13;5.95;;;3.00;99.90;;;;;;4174323;28;20040;-63
2021/12/03 01:03:34;;;;;;;11.73;6.38;;;3.00;99.90;;;;;;4169869;28;20033;-63
2021/12/03 01:05:35;;;;;;;13.10;6.80;;;3.00;99.90;;;;;;4174012;28;20082;-63
2021/12/03 01:07:37;;;;;;;12.10;6.47;;;2.90;99.90;;;;;;4170457;28;20033;-63
2021/12/03 01:09:37;;;;;;;10.95;7.05;;;2.90;99.90;;;;;;4173083;28;20033;-63
2021/12/03 01:11:38;;;;;;;13.68;7.45;;;2.90;99.90;;;;;;4174385;28;20040;-63
2021/12/03 01:13:40;;;;;;;10.82;7.07;;;2.90;99.90;;;;;;4171909;28;20029;-63
2021/12/03 01:15:42;;;;;;;11.18;7.35;;;2.90;99.90;;;;;;4169680;28;20059;-63
2021/12/03 01:17:43;;;;;;;13.80;8.48;;;2.90;99.90;;;;;;4169878;28;20096;-64
2021/12/03 01:19:44;;;;;;;12.40;8.07;;;3.00;99.90;;;;;;4170324;28;20460;-63
2021/12/03 01:21:46;;;;;;;12.50;7.90;;;3.00;99.90;;;;;;4174286;28;20037;-63
2021/12/03 01:23:47;;;;;;;12.63;8.45;;;3.00;99.90;;;;;;4174498;28;20503;-63
2021/12/03 01:25:48;;;;;;;16.90;9.95;;;3.00;99.90;;;;;;4170071;28;20033;-63
2021/12/03 01:27:49;;;;;;;15.52;9.32;;;3.00;99.90;;;;;;4174537;28;20037;-63
2021/12/03 01:29:50;;;;;;;17.05;10.23;;;3.10;99.90;;;;;;4172749;28;20456;-63
2021/12/03 01:31:54;;;;;;;14.93;10.20;;;3.00;99.90;;;;;;4175538;28;20039;-63
2021/12/03 01:33:54;;;;;;;16.67;10.70;;;3.00;99.90;;;;;;4176240;28;20025;-63
2021/12/03 01:35:55;;;;;;;15.80;9.98;;;2.90;99.90;;;;;;4176886;28;20067;-63
2021/12/03 01:37:56;;;;;;;18.33;10.82;;;3.00;99.90;;;;;;4181106;28;20028;-63
2021/12/03 01:39:57;;;;;;;17.70;11.02;;;3.00;99.90;;;;;;4173451;28;20380;-63
2021/12/03 01:41:58;;;;;;;19.05;11.57;;;3.00;99.90;;;;;;4172366;28;20036;-63
2021/12/03 01:44:02;;;;;;;18.33;11.50;;;3.00;99.90;;;;;;4173824;28;20095;-63
2021/12/03 01:46:07;;;;;;;22.02;12.98;;;3.00;99.90;;;;;;4177751;28;20017;-63
2021/12/03 01:48:08;;;;;;;21.63;12.55;;;3.10;99.90;;;;;;4175487;28;20033;-63
2021/12/03 01:50:10;;;;;;;22.70;13.27;;;3.10;99.90;;;;;;4174586;28;20038;-64
2021/12/03 01:52:11;;;;;;;26.80;14.88;;;3.00;99.90;;;;;;4178570;28;20400;-63
2021/12/03 01:54:11;;;;;;;30.45;16.48;;;3.10;99.90;;;;;;4173017;28;20026;-63
2021/12/03 01:56:14;;;;;;;31.40;15.98;;;3.00;99.90;;;;;;4174831;28;20086;-63
2021/12/03 01:58:15;;;;;;;41.10;20.00;;;3.00;99.90;;;;;;4174599;28;20088;-63
2021/12/03 02:00:26;;;;;;;37.90;18.40;;;3.00;99.90;;;;;;4172295;28;20415;-63
2021/12/03 02:02:27;;;;;;;38.38;20.15;;;3.00;99.90;;;;;;4178069;28;20040;-63
2021/12/03 02:04:28;;;;;;;36.95;18.88;;;3.00;99.90;;;;;;4173055;28;20040;-63
2021/12/03 02:06:29;;;;;;;35.92;19.90;;;3.00;99.90;;;;;;4179411;28;20460;-63
2021/12/03 02:08:30;;;;;;;33.70;18.08;;;2.90;99.90;;;;;;4174920;28;20044;-63
2021/12/03 02:10:31;;;;;;;41.10;21.40;;;3.00;99.90;;;;;;4178846;22;20037;-72
2021/12/03 02:14:42;;;;;;;36.20;20.25;;;3.00;99.90;;;;;;2628784;23;20054;-63
2021/12/03 02:16:45;;;;;;;38.13;21.80;;;2.90;99.90;;;;;;4165145;28;20044;-63
2021/12/03 02:18:46;;;;;;;41.00;21.60;;;2.90;99.90;;;;;;4156279;28;20040;-63
2021/12/03 02:20:51;;;;;;;48.28;23.85;;;3.00;99.90;;;;;;4160195;28;20037;-63
2021/12/03 02:22:52;;;;;;;45.88;22.50;;;2.90;99.90;;;;;;4157888;28;20061;-63
2021/12/03 02:24:52;;;;;;;46.55;22.63;;;2.90;99.90;;;;;;4159664;28;20033;-63
2021/12/03 02:26:53;;;;;;;45.28;23.63;;;2.90;99.90;;;;;;4154015;28;20030;-63
2021/12/03 02:28:54;;;;;;;46.50;22.83;;;2.90;99.90;;;;;;4157958;28;20045;-63
2021/12/03 02:30:55;;;;;;;50.67;26.08;;;2.90;99.90;;;;;;4152344;28;20082;-63
2021/12/03 02:32:55;;;;;;;48.90;24.17;;;2.90;99.90;;;;;;4155897;28;20037;-62
2021/12/03 02:34:56;;;;;;;54.33;25.50;;;2.90;99.90;;;;;;4165169;28;20029;-63
2021/12/03 02:36:57;;;;;;;47.28;23.67;;;2.90;99.90;;;;;;4160295;28;20034;-62
2021/12/03 02:38:58;;;;;;;47.67;24.35;;;2.90;99.90;;;;;;4155079;28;20041;-63
2021/12/03 02:40:59;;;;;;;47.42;24.85;;;2.80;99.90;;;;;;4159379;28;20056;-63
2021/12/03 02:42:59;;;;;;;49.53;25.17;;;2.90;99.90;;;;;;4155652;28;20380;-63
2021/12/03 02:45:00;;;;;;;46.90;24.85;;;2.90;99.90;;;;;;4160587;28;20038;-63
2021/12/03 02:47:02;;;;;;;47.17;23.42;;;2.90;99.90;;;;;;4159327;28;20087;-62
2021/12/03 02:49:05;;;;;;;48.33;24.65;;;2.90;99.90;;;;;;4158362;28;20042;-62
2021/12/03 02:51:07;;;;;;;43.38;23.98;;;2.90;99.90;;;;;;4160247;28;20075;-63
2021/12/03 02:53:08;;;;;;;;;;;3.00;99.90;;;;;;4161098;28;20384;-63
2021/12/03 02:55:09;;;;;;;47.22;23.00;;;2.90;99.90;;;;;;4152878;28;19910;-63
2021/12/03 02:57:10;;;;;;;49.40;24.42;;;3.00;99.90;;;;;;4154807;28;20105;-62
2021/12/03 02:59:10;;;;;;;43.90;23.10;;;3.10;99.90;;;;;;4158041;28;20040;-63
2021/12/03 03:01:12;;;;;;;51.35;25.30;;;3.10;99.90;;;;;;4153109;28;20054;-63
2021/12/03 03:03:12;;;;;;;52.65;24.90;;;3.10;99.90;;;;;;4158651;28;20033;-63
2021/12/03 03:05:15;;;;;;;55.25;25.98;;;3.10;99.90;;;;;;4159439;28;20028;-64
2021/12/03 03:07:16;;;;;;;49.15;23.77;;;3.10;99.90;;;;;;4156624;28;20106;-63
2021/12/03 03:09:16;;;;;;;45.00;23.88;;;3.10;99.90;;;;;;4154173;28;20384;-63
2021/12/03 03:11:18;;;;;;;47.78;26.00;;;3.10;99.90;;;;;;4159771;28;20045;-63
2021/12/03 03:13:19;;;;;;;47.53;24.70;;;3.10;99.90;;;;;;4158855;28;20468;-63
2021/12/03 03:15:21;;;;;;;46.63;23.42;;;3.10;99.90;;;;;;4159834;28;20300;-63
2021/12/03 03:17:23;;;;;;;43.92;22.33;;;3.10;99.90;;;;;;4161468;28;20041;-63
2021/12/03 03:19:24;;;;;;;47.08;23.10;;;3.10;99.90;;;;;;4153883;28;20033;-63
2021/12/03 03:21:24;;;;;;;47.17;23.55;;;3.10;99.90;;;;;;4157747;28;20044;-63
2021/12/03 03:23:26;;;;;;;50.13;24.10;;;3.20;99.90;;;;;;4158642;28;20030;-63
2021/12/03 03:25:26;;;;;;;45.72;22.77;;;3.20;99.90;;;;;;4159486;28;20387;-63
2021/12/03 03:27:29;;;;;;;44.15;21.88;;;3.10;99.90;;;;;;4159865;28;20120;-63
2021/12/03 03:29:31;;;;;;;45.00;22.08;;;3.20;99.90;;;;;;4152866;28;20029;-63
2021/12/03 03:31:33;;;;;;;39.20;21.10;;;3.10;99.90;;;;;;4158896;28;20034;-63
2021/12/03 03:33:33;;;;;;;49.60;22.20;;;3.20;99.90;;;;;;4159588;28;20030;-63
2021/12/03 03:35:34;;;;;;;42.38;21.13;;;3.20;99.90;;;;;;4155703;28;20518;-62
2021/12/03 03:37:35;;;;;;;43.20;19.75;;;3.10;99.90;;;;;;4160970;28;20084;-62
2021/12/03 03:39:36;;;;;;;51.97;23.30;;;3.20;99.90;;;;;;4159838;28;20081;-62
2021/12/03 03:41:38;;;;;;;43.55;20.95;;;3.20;99.90;;;;;;4159158;28;20045;-62
2021/12/03 03:43:39;;;;;;;47.13;21.25;;;3.20;99.90;;;;;;4158035;28;20499;-62
2021/12/03 03:45:41;;;;;;;43.13;19.98;;;3.20;99.90;;;;;;4158420;28;20033;-62
2021/12/03 03:47:42;;;;;;;41.50;19.48;;;3.30;99.90;;;;;;4159989;28;20045;-62
2021/12/03 03:49:43;;;;;;;39.65;19.73;;;3.30;99.90;;;;;;4153522;28;20045;-62
2021/12/03 03:51:44;;;;;;;43.80;20.73;;;3.30;99.90;;;;;;4157969;28;20064;-62
2021/12/03 03:53:45;;;;;;;43.90;20.23;;;3.30;99.90;;;;;;4158180;28;20040;-62
2021/12/03 03:55:46;;;;;;;43.00;20.52;;;3.40;99.90;;;;;;4154268;28;20033;-62
2021/12/03 03:57:48;;;;;;;38.72;19.38;;;3.40;99.90;;;;;;4159369;28;20030;-62
2021/12/03 03:59:49;;;;;;;41.33;19.67;;;3.40;99.90;;;;;;4155315;28;20048;-62
2021/12/03 04:01:53;;;;;;;39.97;20.10;;;3.40;99.90;;;;;;4156160;28;20041;-62
2021/12/03 04:03:54;;;;;;;38.80;19.45;;;3.40;99.90;;;;;;4155915;28;20388;-63
2021/12/03 04:05:54;;;;;;;43.63;21.25;;;3.40;99.90;;;;;;4158815;28;20021;-62
2021/12/03 04:07:55;;;;;;;41.63;20.85;;;3.40;99.90;;;;;;4174663;28;20037;-62
2021/12/03 04:09:55;;;;;;;42.70;20.75;;;3.40;99.90;;;;;;4151694;28;20059;-62
2021/12/03 04:11:57;;;;;;;42.22;20.48;;;3.30;99.90;;;;;;4158530;28;20506;-63
2021/12/03 04:13:57;;;;;;;41.30;19.23;;;3.40;99.90;;;;;;4157784;28;20049;-63
2021/12/03 04:15:58;;;;;;;42.05;20.42;;;3.40;99.90;;;;;;4153764;28;20022;-63
2021/12/03 04:17:59;;;;;;;39.25;19.20;;;3.40;99.90;;;;;;4154321;28;20069;-63
2021/12/03 04:20:00;;;;;;;36.72;17.42;;;3.40;99.90;;;;;;4154127;28;20080;-63
2021/12/03 04:22:00;;;;;;;43.00;19.40;;;3.40;99.90;;;;;;4155571;28;20034;-63
2021/12/03 04:24:01;;;;;;;40.47;20.10;;;3.40;99.90;;;;;;4159035;28;20121;-63
2021/12/03 04:26:02;;;;;;;41.92;19.83;;;3.40;99.90;;;;;;4158837;28;20122;-60
2021/12/03 04:28:03;;;;;;;38.88;18.92;;;3.40;99.90;;;;;;4152275;28;20438;-62
2021/12/03 04:30:08;;;;;;;36.67;18.33;;;3.40;99.90;;;;;;4159038;28;20031;-63
2021/12/03 04:32:09;;;;;;;33.92;17.80;;;3.40;99.90;;;;;;4158826;28;20030;-62
2021/12/03 04:34:10;;;;;;;31.52;15.93;;;3.40;99.90;;;;;;4158855;28;20125;-62
2021/12/03 04:36:10;;;;;;;32.20;15.85;;;3.40;99.90;;;;;;4176535;28;20032;-62
2021/12/03 04:38:11;;;;;;;28.27;16.00;;;3.50;99.90;;;;;;4154195;28;20025;-62
2021/12/03 04:40:15;;;;;;;30.83;15.90;;;3.40;99.90;;;;;;4153210;28;20038;-63
2021/12/03 04:42:15;;;;;;;32.92;15.48;;;3.40;99.90;;;;;;4151036;28;20041;-62
2021/12/03 04:44:16;;;;;;;26.77;14.10;;;3.40;99.90;;;;;;4161556;28;20040;-63
2021/12/03 04:46:17;;;;;;;28.58;15.00;;;3.40;99.90;;;;;;4155277;28;20396;-63
2021/12/03 04:48:17;;;;;;;21.60;12.88;;;3.40;99.90;;;;;;4158811;28;20387;-62
2021/12/03 04:50:21;;;;;;;21.73;11.75;;;3.40;99.90;;;;;;4158730;28;20091;-63
2021/12/03 04:52:22;;;;;;;23.88;12.68;;;3.50;99.90;;;;;;4150491;28;20468;-63
2021/12/03 04:54:23;;;;;;;21.88;13.18;;;3.40;99.90;;;;;;4158115;28;20033;-63
2021/12/03 04:56:24;;;;;;;25.88;13.18;;;3.40;99.90;;;;;;4155356;28;20387;-63
2021/12/03 04:58:24;;;;;;;23.50;13.35;;;3.50;99.90;;;;;;4159685;28;20039;-62
2021/12/03 05:00:30;;;;;;;24.25;12.93;;;3.50;99.90;;;;;;4150043;28;20049;-63
2021/12/03 05:02:30;;;;;;;24.17;12.43;;;3.50;99.90;;;;;;4155929;28;20045;-62
2021/12/03 05:04:37;;;;;;;23.88;13.23;;;3.50;99.90;;;;;;4151107;28;20422;-62
2021/12/03 05:06:55;;;;;;;25.27;13.02;;;3.40;99.90;;;;;;4156521;28;20029;-62
2021/12/03 05:08:56;;;;;;;23.90;13.43;;;3.50;99.90;;;;;;4158448;28;20041;-63
2021/12/03 05:10:58;;;;;;;24.92;13.90;;;3.50;99.90;;;;;;4157922;28;20037;-62
2021/12/03 05:13:07;;;;;;;29.73;14.80;;;3.50;99.90;;;;;;4153921;28;20029;-63
2021/12/03 05:15:08;;;;;;;28.65;14.20;;;3.50;99.90;;;;;;4151671;28;20447;-62
2021/12/03 05:17:09;;;;;;;33.80;14.68;;;3.50;99.90;;;;;;4155620;28;20065;-63
2021/12/03 05:19:10;;;;;;;30.73;15.27;;;3.50;99.90;;;;;;4158822;28;20025;-63
2021/12/03 05:21:10;;;;;;;29.83;15.90;;;3.50;99.90;;;;;;4150530;28;20033;-62
2021/12/03 05:23:12;;;;;;;25.17;14.57;;;3.50;99.90;;;;;;4153025;28;20075;-62
2021/12/03 05:25:13;;;;;;;26.38;14.07;;;3.40;99.90;;;;;;4156058;28;20088;-63
2021/12/03 05:27:15;;;;;;;29.92;15.27;;;3.50;99.90;;;;;;4150857;28;20168;-62
2021/12/03 05:29:17;;;;;;;28.77;15.55;;;3.50;99.90;;;;;;4160848;28;20440;-63
2021/12/03 05:31:18;;;;;;;28.65;15.48;;;3.50;99.90;;;;;;4153510;28;20034;-62
2021/12/03 05:33:19;;;;;;;31.38;16.30;;;3.50;99.90;;;;;;4160578;28;20026;-62
2021/12/03 05:35:20;;;;;;;28.02;15.50;;;3.50;99.90;;;;;;4156133;28;20046;-61
2021/12/03 05:37:21;;;;;;;24.70;14.23;;;3.50;99.90;;;;;;4156898;28;20136;-62
2021/12/03 05:39:22;;;;;;;25.23;14.65;;;3.50;99.90;;;;;;4158359;28;20365;-62
2021/12/03 05:41:23;;;;;;;28.73;15.77;;;3.60;99.90;;;;;;4157604;28;20041;-62
2021/12/03 05:43:24;;;;;;;30.88;16.15;;;3.60;99.90;;;;;;4158169;28;20076;-63
2021/12/03 05:45:28;;;;;;;27.30;14.27;;;3.60;99.90;;;;;;4157296;28;20083;-63
2021/12/03 05:47:29;;;;;;;31.13;16.17;;;3.60;99.90;;;;;;4154567;28;20091;-62
2021/12/03 05:49:29;;;;;;;26.23;14.35;;;3.60;99.90;;;;;;4159192;28;20053;-63
2021/12/03 05:51:30;;;;;;;22.77;12.98;;;3.60;99.90;;;;;;4151378;28;20025;-63
2021/12/03 05:53:31;;;;;;;33.97;15.95;;;3.70;99.90;;;;;;4156465;28;20034;-63
2021/12/03 05:55:31;;;;;;;32.25;15.63;;;3.70;99.90;;;;;;4156333;28;20100;-63
2021/12/03 05:57:32;;;;;;;27.13;14.45;;;3.60;99.90;;;;;;4154037;28;20383;-63
2021/12/03 05:59:33;;;;;;;28.85;15.27;;;3.70;99.90;;;;;;4157774;28;20034;-63
2021/12/03 06:01:33;;;;;;;26.55;14.07;;;3.70;99.90;;;;;;4155908;28;20056;-63
2021/12/03 06:03:34;;;;;;;29.20;14.73;;;3.70;99.90;;;;;;4156442;28;20064;-63
2021/12/03 06:05:36;;;;;;;28.45;15.43;;;3.70;99.90;;;;;;4157274;28;20033;-62
2021/12/03 06:07:36;;;;;;;28.73;15.93;;;3.70;99.90;;;;;;4156965;28;20030;-63
2021/12/03 06:09:37;;;;;;;29.70;15.45;;;3.70;99.90;;;;;;4153152;28;20037;-63
2021/12/03 06:11:38;;;;;;;29.40;15.05;;;3.70;99.90;;;;;;4154750;28;20227;-63
2021/12/03 06:13:39;;;;;;;26.27;13.82;;;3.70;99.90;;;;;;4157754;28;20634;-63
2021/12/03 06:15:40;;;;;;;32.70;15.75;;;3.70;99.90;;;;;;4174749;28;20089;-62
2021/12/03 06:17:40;;;;;;;33.30;15.25;;;3.70;99.90;;;;;;4155636;28;20072;-63
2021/12/03 06:19:42;;;;;;;37.30;16.55;;;3.70;99.90;;;;;;4161857;28;20026;-64
2021/12/03 06:21:43;;;;;;;36.58;16.73;;;3.70;99.90;;;;;;4154812;28;20414;-63
2021/12/03 06:23:44;;;;;;;29.48;15.15;;;3.80;99.90;;;;;;4163014;28;20036;-63
2021/12/03 06:25:46;;;;;;;27.83;15.65;;;3.80;99.90;;;;;;4155026;28;20029;-64
2021/12/03 06:27:48;;;;;;;32.08;16.30;;;3.80;99.90;;;;;;4158244;28;20570;-63
2021/12/03 06:29:48;;;;;;;32.20;15.30;;;3.80;99.90;;;;;;4161311;28;20488;-64
2021/12/03 06:31:49;;;;;;;27.35;15.75;;;3.80;99.90;;;;;;4158074;28;20046;-63
2021/12/03 06:33:50;;;;;;;25.80;13.80;;;3.80;99.90;;;;;;4161435;28;20057;-63
2021/12/03 06:35:52;;;;;;;35.95;17.02;;;3.80;99.90;;;;;;4161018;28;20112;-63
2021/12/03 06:37:53;;;;;;;24.95;14.90;;;3.80;99.90;;;;;;4161187;28;20037;-63
2021/12/03 06:39:53;;;;;;;30.42;15.55;;;3.80;99.90;;;;;;4160962;28;20380;-63
2021/12/03 06:41:54;;;;;;;31.17;15.05;;;3.90;99.90;;;;;;4160726;28;20049;-63
2021/12/03 06:43:55;;;;;;;31.48;16.52;;;3.90;99.90;;;;;;4161657;28;20026;-63
2021/12/03 06:45:55;;;;;;;28.75;15.35;;;3.90;99.90;;;;;;4160243;28;20036;-63
2021/12/03 06:47:57;;;;;;;32.60;17.17;;;3.90;99.90;;;;;;4160664;28;20041;-63
2021/12/03 06:49:58;;;;;;;35.28;16.38;;;3.90;99.90;;;;;;4160869;28;20030;-63
2021/12/03 06:52:03;;;;;;;34.63;16.77;;;3.90;99.90;;;;;;4156486;28;20461;-63
2021/12/03 06:54:05;;;;;;;33.70;17.02;;;3.90;99.90;;;;;;4160825;28;20036;-63
2021/12/03 06:56:09;;;;;;;31.45;16.35;;;3.90;99.90;;;;;;4159918;28;20125;-63
2021/12/03 06:58:09;;;;;;;31.88;16.75;;;4.00;99.90;;;;;;4165618;28;20384;-63
2021/12/03 07:00:12;;;;;;;35.35;16.42;;;4.00;99.90;;;;;;4155848;28;20034;-64
2021/12/03 07:02:13;;;;;;;35.08;16.70;;;3.90;99.90;;;;;;4160981;28;20033;-64
2021/12/03 07:04:14;;;;;;;28.77;15.90;;;3.90;99.90;;;;;;4157433;28;20037;-63
2021/12/03 07:06:15;;;;;;;32.53;16.38;;;4.00;99.90;;;;;;4163681;28;20092;-64
2021/12/03 07:08:16;;;;;;;30.27;16.33;;;4.00;99.90;;;;;;4158907;28;20033;-64
2021/12/03 07:10:17;;;;;;;31.85;16.30;;;4.00;99.90;;;;;;4155911;28;20034;-64
2021/12/03 07:12:18;;;;;;;31.40;15.38;;;4.00;99.90;;;;;;4159988;28;20041;-63
2021/12/03 07:14:18;;;;;;;31.40;16.80;;;4.10;99.90;;;;;;4155788;28;20081;-64
2021/12/03 07:16:19;;;;;;;30.75;16.08;;;4.00;99.90;;;;;;4155930;28;20022;-63
2021/12/03 07:18:20;;;;;;;30.38;15.88;;;4.00;99.90;;;;;;4158721;28;20057;-64
2021/12/03 07:20:23;;;;;;;31.67;16.88;;;4.00;99.90;;;;;;4151693;28;20480;-64
2021/12/03 07:22:28;;;;;;;32.22;18.20;;;4.10;99.90;;;;;;4164665;28;20420;-64
2021/12/03 07:24:28;;;;;;;28.10;17.08;;;4.00;99.90;;;;;;4154402;28;20026;-64
2021/12/03 07:26:29;;;;;;;32.13;17.20;;;4.10;99.90;;;;;;4153227;28;20062;-64
2021/12/03 07:28:31;;;;;;;32.20;16.45;;;4.10;99.90;;;;;;4158289;28;20385;-63
2021/12/03 07:30:32;;;;;;;29.43;17.27;;;4.10;99.90;;;;;;4150728;28;20033;-64
2021/12/03 07:32:32;;;;;;;33.28;16.52;;;4.10;99.90;;;;;;4152928;28;20293;-64
2021/12/03 07:34:33;;;;;;;28.42;15.52;;;4.00;99.90;;;;;;4157646;28;20034;-64
2021/12/03 07:36:33;;;;;;;34.45;16.15;;;3.90;99.90;;;;;;4154780;28;20477;-64
2021/12/03 07:38:36;;;;;;;27.15;14.75;;;4.00;99.90;;;;;;4159404;28;20026;-64
2021/12/03 07:40:37;;;;;;;34.28;14.55;;;4.00;99.90;;;;;;4159820;28;20034;-64
2021/12/03 07:42:39;;;;;;;26.20;13.60;;;3.90;99.90;;;;;;4155235;28;20116;-64
2021/12/03 07:44:39;;;;;;;29.80;13.57;;;3.90;99.90;;;;;;4156376;28;20028;-64
2021/12/03 07:46:40;;;;;;;21.02;12.93;;;3.80;99.90;;;;;;4155540;28;20029;-64
2021/12/03 07:48:46;;;;;;;26.33;12.57;;;3.80;99.90;;;;;;4159649;28;20426;-64
2021/12/03 07:50:48;;;;;;;29.17;12.10;;;3.80;99.90;;;;;;4159317;28;20582;-64
2021/12/03 07:52:49;;;;;;;29.30;12.50;;;3.80;99.90;;;;;;4162093;28;20541;-64
2021/12/03 07:54:50;;;;;;;20.58;10.23;;;3.80;99.90;;;;;;4163851;28;20025;-64
2021/12/03 07:56:51;;;;;;;23.27;10.98;;;3.80;99.90;;;;;;4156146;28;20040;-64
2021/12/03 07:58:51;;;;;;;21.15;10.25;;;3.90;99.90;;;;;;4159679;28;20495;-64
2021/12/03 08:00:54;;;;;;;26.40;10.57;;;3.80;99.90;;;;;;4155519;28;20057;-64
2021/12/03 08:02:54;;;;;;;;;;;3.80;99.90;;;;;;4158007;28;20038;-64
2021/12/03 08:04:55;;;;;;;29.55;9.65;;;3.80;99.90;;;;;;4154515;28;19948;-64
2021/12/03 08:06:56;;;;;;;21.98;8.52;;;3.80;99.90;;;;;;4158756;28;20121;-64
2021/12/03 08:08:56;;;;;;;20.77;7.43;;;3.80;99.90;;;;;;4159350;28;20033;-64
2021/12/03 08:10:57;;;;;;;23.80;8.02;;;3.80;99.90;;;;;;4158804;28;20025;-64
2021/12/03 08:12:58;;;;;;;22.35;8.43;;;3.80;99.90;;;;;;4157819;28;20404;-64
2021/12/03 08:14:58;;;;;;;20.92;7.22;;;3.80;99.90;;;;;;4153059;28;20054;-64
2021/12/03 08:16:59;;;;;;;19.88;7.38;;;3.80;99.90;;;;;;4155624;28;20034;-64
2021/12/03 08:18:59;;;;;;;16.35;7.00;;;3.80;99.90;;;;;;4159806;28;20044;-64
2021/12/03 08:21:02;;;;;;;17.90;6.93;;;3.80;99.90;;;;;;4153214;28;20029;-64
2021/12/03 08:23:04;;;;;;;19.27;7.90;;;3.80;99.90;;;;;;4153112;28;20120;-64
2021/12/03 08:25:06;;;;;;;19.52;6.75;;;3.70;99.90;;;;;;4158878;28;20045;-64
2021/12/03 08:27:06;;;;;;;20.67;7.43;;;3.80;99.90;;;;;;4158747;28;20026;-64
2021/12/03 08:29:07;;;;;;;27.83;6.90;;;3.80;99.90;;;;;;4156032;28;20033;-64
2021/12/03 08:31:11;;;;;;;17.45;6.50;;;3.80;99.90;;;;;;4158337;28;20112;-64
2021/12/03 08:33:12;;;;;;;22.23;6.72;;;3.80;99.90;;;;;;4158935;28;20041;-64
2021/12/03 08:35:13;;;;;;;22.08;7.53;;;3.80;99.90;;;;;;4150474;28;20040;-65
2021/12/03 08:37:13;;;;;;;16.58;5.88;;;3.80;99.90;;;;;;4153328;28;20037;-64
2021/12/03 08:39:14;;;;;;;15.43;5.93;;;3.80;99.90;;;;;;4154817;28;20404;-64
2021/12/03 08:41:17;;;;;;;18.85;6.20;;;3.80;99.90;;;;;;4150424;28;20075;-64
2021/12/03 08:43:18;;;;;;;14.00;5.95;;;3.90;99.90;;;;;;4166475;28;20049;-64
2021/12/03 08:45:20;;;;;;;18.27;6.22;;;3.80;99.90;;;;;;4158197;28;20053;-65
2021/12/03 08:47:21;;;;;;;;;;;3.80;99.90;;;;;;4159725;28;20469;-64
2021/12/03 08:56:09;;;;;;;16.80;5.80;;;3.80;99.90;;;;;;4130663;28;20447;-64
2021/12/03 08:58:11;;;;;;;22.85;6.55;;;3.90;99.90;;;;;;4155184;28;20021;-64
2021/12/03 09:00:16;;;;;;;18.83;6.60;;;3.90;99.90;;;;;;4162505;28;20036;-65
2021/12/03 09:02:17;;;;;;;16.42;5.68;;;3.90;99.90;;;;;;4154492;28;20553;-64
2021/12/03 09:04:18;;;;;;;19.02;5.78;;;4.00;99.90;;;;;;4163136;28;20037;-63
2021/12/03 09:06:18;;;;;;;16.33;4.93;;;4.00;99.90;;;;;;4157791;28;20029;-63
2021/12/03 09:08:19;;;;;;;17.15;5.50;;;4.00;99.90;;;;;;4159780;28;20061;-64
2021/12/03 09:10:20;;;;;;;18.75;6.10;;;4.00;99.90;;;;;;4150410;28;20021;-64
2021/12/03 09:12:21;;;;;;;18.85;6.43;;;4.00;99.90;;;;;;4157287;28;20492;-64
2021/12/03 09:14:36;;;;;;;17.23;5.93;;;4.00;99.90;;;;;;4156391;28;20046;-64
2021/12/03 09:16:36;;;;;;;23.25;5.18;;;4.00;99.90;;;;;;4151525;28;20041;-64
2021/12/03 09:18:40;;;;;;;22.85;5.50;;;4.00;99.90;;;;;;4158613;28;20029;-65
2021/12/03 09:22:45;;;;;;;15.90;5.03;;;4.10;99.90;;;;;;4159095;28;20484;-64
2021/12/03 09:24:46;;;;;;;21.88;5.60;;;4.10;99.90;;;;;;4154631;28;20384;-64
2021/12/03 09:26:46;;;;;;;20.48;5.80;;;4.10;99.90;;;;;;4152897;28;20033;-64
2021/12/03 09:28:53;;;;;;;20.02;5.30;;;4.10;99.90;;;;;;4162213;28;20026;-64
2021/12/03 09:30:54;;;;;;;17.40;5.53;;;4.10;99.90;;;;;;4157307;28;20034;-64
2021/12/03 09:32:57;;;;;;;13.45;4.72;;;4.20;99.90;;;;;;4162140;28;20086;-63
2021/12/03 09:34:59;;;;;;;13.52;5.07;;;4.20;99.90;;;;;;4156738;28;20033;-65
2021/12/03 09:36:59;;;;;;;17.50;5.57;;;4.20;99.90;;;;;;4155586;28;20045;-64
2021/12/03 09:39:00;;;;;;;19.30;5.35;;;4.30;99.90;;;;;;4156243;28;20030;-64
2021/12/03 09:41:06;;;;;;;20.05;5.10;;;4.30;99.90;;;;;;4155033;28;20053;-64
2021/12/03 09:43:07;;;;;;;16.08;4.60;;;4.30;99.90;;;;;;4162892;28;20418;-64
2021/12/03 09:45:09;;;;;;;19.42;5.88;;;4.30;99.90;;;;;;4155553;28;20108;-66
2021/12/03 09:47:10;;;;;;;16.60;5.18;;;4.30;99.90;;;;;;4156876;28;20048;-64
2021/12/03 09:51:11;;;;;;;16.27;5.28;;;4.30;99.90;;;;;;4158222;28;20449;-63
2021/12/03 09:53:36;;;;;;;17.95;5.05;;;4.30;99.90;;;;;;4164899;28;20029;-64
2021/12/03 09:55:37;;;;;;;22.55;6.63;;;4.40;99.90;;;;;;4154736;28;20083;-64
2021/12/03 10:13:35;;;;;;;16.13;5.55;;;4.50;99.90;;;;;;4159669;28;20025;-64
2021/12/03 10:16:37;;;;;;;18.00;5.25;;;4.50;99.90;;;;;;4156423;28;20053;-65
2021/12/03 10:18:21;;;;;;;21.77;6.30;;;4.60;99.90;;;;;;4154731;28;20563;-65
2021/12/03 10:24:57;;;;;;;15.40;5.30;;;4.60;99.90;;;;;;4158035;28;20045;-65
2021/12/03 10:36:43;;;;;;;16.38;5.32;;;4.70;99.90;;;;;;4160052;28;20463;-65
2021/12/03 10:45:40;;;;;;;14.07;5.13;;;4.60;99.90;;;;;;4125480;28;20100;-64
2021/12/03 10:47:55;;;;;;;11.90;4.85;;;4.60;99.90;;;;;;4159928;28;20118;-65
2021/12/03 10:52:23;;;;;;;17.58;5.10;;;4.60;99.90;;;;;;4160080;28;20481;-65
2021/12/03 11:17:12;;;;;;;17.35;4.63;;;4.80;99.90;;;;;;4159611;28;20080;-64
2021/12/03 11:20:12;;;;;;;14.77;4.78;;;4.80;99.90;;;;;;4156216;28;20164;-64
2021/12/03 11:27:10;;;;;;;15.95;4.90;;;4.80;99.90;;;;;;4154743;28;20034;-64
2021/12/03 11:29:00;;;;;;;10.30;3.60;;;4.90;99.90;;;;;;4160089;28;20034;-65
2021/12/03 12:09:05;;;;;;;51.42;18.13;;;5.10;99.90;;;;;;4152015;28;20088;-65
2021/12/03 12:13:15;;;;;;;52.38;19.05;;;5.10;99.90;;;;;;4154604;28;20034;-64
2021/12/03 12:42:33;;;;;;;12.85;4.95;;;5.40;99.90;;;;;;4132142;28;20131;-64
2021/12/03 14:07:38;;;;;;;19.35;4.22;;;5.60;99.90;;;;;;4158760;28;20152;-65
2021/12/03 14:37:38;;;;;;;9.73;2.80;;;5.50;99.90;;;;;;4160513;28;20449;-64
2021/12/03 14:44:06;;;;;;;7.93;2.75;;;5.50;99.90;;;;;;4163324;28;20432;-63
2021/12/03 14:48:32;;;;;;;8.18;3.60;;;5.50;99.90;;;;;;4156531;28;20040;-63
2021/12/03 14:55:25;;;;;;;8.75;3.42;;;5.50;99.90;;;;;;4152775;28;20025;-64
2021/12/03 14:59:37;;;;;;;7.68;3.85;;;5.40;99.90;;;;;;4150684;28;20025;-64
2021/12/03 15:04:12;;;;;;;8.07;3.60;;;5.40;99.90;;;;;;4161009;28;20040;-63
2021/12/03 15:08:39;;;;;;;10.88;3.72;;;5.40;99.90;;;;;;4161044;28;20444;-64